sensor_id;sensor_type;location;lat;lon;timestamp;P1;durP1;ratioP1;P2;durP2;ratioP2
29196;SDS011;62796;42.654;23.316;2023-08-01T00:01:49;6.88;;;2.53;;
29196;SDS011;62796;42.654;23.316;2023-08-01T00:04:15;3.78;;;2.38;;
29196;SDS011;62796;42.654;23.316;2023-08-01T00:06:41;3.65;;;2.30;;
29196;SDS011;62796;42.654;23.316;2023-08-01T00:09:06;5.38;;;2.35;;
29196;SDS011;62796;42.654;23.316;2023-08-01T00:11:32;3.88;;;2.38;;
29196;SDS011;62796;42.654;23.316;2023-08-01T00:13:57;6.43;;;2.40;;
29196;SDS011;62796;42.654;23.316;2023-08-01T00:16:23;2.30;;;2.00;;
29196;SDS011;62796;42.654;23.316;2023-08-01T00:18:48;2.45;;;2.20;;
29196;SDS011;62796;42.654;23.316;2023-08-01T00:21:14;2.63;;;2.25;;
29196;SDS011;62796;42.654;23.316;2023-08-01T00:23:40;2.80;;;2.28;;
29196;SDS011;62796;42.654;23.316;2023-08-01T00:26:05;5.97;;;2.47;;
29196;SDS011;62796;42.654;23.316;2023-08-01T00:28:31;5.32;;;2.33;;
29196;SDS011;62796;42.654;23.316;2023-08-01T00:31:03;3.80;;;2.47;;
29196;SDS011;62796;42.654;23.316;2023-08-01T00:33:35;5.18;;;2.25;;
29196;SDS011;62796;42.654;23.316;2023-08-01T00:36:01;3.72;;;2.55;;
29196;SDS011;62796;42.654;23.316;2023-08-01T00:38:27;4.53;;;2.30;;
29196;SDS011;62796;42.654;23.316;2023-08-01T00:40:52;3.35;;;2.20;;
29196;SDS011;62796;42.654;23.316;2023-08-01T00:43:18;5.88;;;2.33;;
29196;SDS011;62796;42.654;23.316;2023-08-01T00:45:43;2.92;;;2.38;;
29196;SDS011;62796;42.654;23.316;2023-08-01T00:48:10;2.60;;;2.05;;
29196;SDS011;62796;42.654;23.316;2023-08-01T00:50:36;4.53;;;2.60;;
29196;SDS011;62796;42.654;23.316;2023-08-01T00:53:01;2.67;;;2.22;;
29196;SDS011;62796;42.654;23.316;2023-08-01T00:55:27;3.10;;;2.10;;
29196;SDS011;62796;42.654;23.316;2023-08-01T00:57:54;3.45;;;2.40;;
29196;SDS011;62796;42.654;23.316;2023-08-01T01:00:19;2.45;;;2.22;;
29196;SDS011;62796;42.654;23.316;2023-08-01T01:02:45;4.07;;;2.60;;
29196;SDS011;62796;42.654;23.316;2023-08-01T01:05:11;4.35;;;2.10;;
29196;SDS011;62796;42.654;23.316;2023-08-01T01:07:38;3.22;;;2.28;;
29196;SDS011;62796;42.654;23.316;2023-08-01T01:10:04;3.15;;;2.50;;
29196;SDS011;62796;42.654;23.316;2023-08-01T01:12:30;5.13;;;2.30;;
29196;SDS011;62796;42.654;23.316;2023-08-01T01:14:55;2.78;;;2.42;;
29196;SDS011;62796;42.654;23.316;2023-08-01T01:17:21;2.83;;;2.50;;
29196;SDS011;62796;42.654;23.316;2023-08-01T01:19:46;3.65;;;2.40;;
29196;SDS011;62796;42.654;23.316;2023-08-01T01:22:11;5.47;;;2.60;;
29196;SDS011;62796;42.654;23.316;2023-08-01T01:24:37;6.22;;;2.78;;
29196;SDS011;62796;42.654;23.316;2023-08-01T01:27:05;3.50;;;2.70;;
29196;SDS011;62796;42.654;23.316;2023-08-01T01:29:32;3.92;;;2.47;;
29196;SDS011;62796;42.654;23.316;2023-08-01T01:31:59;4.30;;;2.13;;
29196;SDS011;62796;42.654;23.316;2023-08-01T01:34:26;4.25;;;2.55;;
29196;SDS011;62796;42.654;23.316;2023-08-01T01:36:52;2.92;;;2.30;;
29196;SDS011;62796;42.654;23.316;2023-08-01T01:39:17;4.53;;;2.30;;
29196;SDS011;62796;42.654;23.316;2023-08-01T01:41:43;5.82;;;2.97;;
29196;SDS011;62796;42.654;23.316;2023-08-01T01:44:08;3.28;;;2.30;;
29196;SDS011;62796;42.654;23.316;2023-08-01T01:46:34;4.18;;;2.40;;
29196;SDS011;62796;42.654;23.316;2023-08-01T01:48:59;4.10;;;2.60;;
29196;SDS011;62796;42.654;23.316;2023-08-01T01:51:25;5.13;;;2.40;;
29196;SDS011;62796;42.654;23.316;2023-08-01T01:53:51;2.70;;;2.42;;
29196;SDS011;62796;42.654;23.316;2023-08-01T01:56:17;3.50;;;2.55;;
29196;SDS011;62796;42.654;23.316;2023-08-01T01:58:42;5.75;;;2.70;;
29196;SDS011;62796;42.654;23.316;2023-08-01T02:01:08;3.45;;;2.55;;
29196;SDS011;62796;42.654;23.316;2023-08-01T02:03:33;2.95;;;2.20;;
29196;SDS011;62796;42.654;23.316;2023-08-01T02:05:59;3.80;;;2.42;;
29196;SDS011;62796;42.654;23.316;2023-08-01T02:08:24;2.75;;;2.30;;
29196;SDS011;62796;42.654;23.316;2023-08-01T02:10:49;4.15;;;2.45;;
29196;SDS011;62796;42.654;23.316;2023-08-01T02:13:15;2.55;;;2.35;;
29196;SDS011;62796;42.654;23.316;2023-08-01T02:15:41;2.90;;;2.53;;
29196;SDS011;62796;42.654;23.316;2023-08-01T02:18:06;3.67;;;2.55;;
29196;SDS011;62796;42.654;23.316;2023-08-01T02:20:32;3.38;;;2.22;;
29196;SDS011;62796;42.654;23.316;2023-08-01T02:22:57;3.88;;;2.25;;
29196;SDS011;62796;42.654;23.316;2023-08-01T02:25:23;4.55;;;2.58;;
29196;SDS011;62796;42.654;23.316;2023-08-01T02:27:48;3.75;;;2.15;;
29196;SDS011;62796;42.654;23.316;2023-08-01T02:30:13;3.13;;;2.58;;
29196;SDS011;62796;42.654;23.316;2023-08-01T02:32:39;3.42;;;2.30;;
29196;SDS011;62796;42.654;23.316;2023-08-01T02:35:04;2.53;;;2.33;;
29196;SDS011;62796;42.654;23.316;2023-08-01T02:37:30;2.92;;;2.38;;
29196;SDS011;62796;42.654;23.316;2023-08-01T02:39:55;2.90;;;2.45;;
29196;SDS011;62796;42.654;23.316;2023-08-01T02:42:21;3.75;;;2.38;;
29196;SDS011;62796;42.654;23.316;2023-08-01T02:44:46;3.35;;;2.70;;
29196;SDS011;62796;42.654;23.316;2023-08-01T02:47:11;3.13;;;2.50;;
29196;SDS011;62796;42.654;23.316;2023-08-01T02:49:37;3.58;;;2.30;;
29196;SDS011;62796;42.654;23.316;2023-08-01T02:52:02;2.75;;;2.40;;
29196;SDS011;62796;42.654;23.316;2023-08-01T02:54:28;9.15;;;2.95;;
29196;SDS011;62796;42.654;23.316;2023-08-01T02:56:53;4.63;;;2.50;;
29196;SDS011;62796;42.654;23.316;2023-08-01T02:59:19;4.47;;;3.25;;
29196;SDS011;62796;42.654;23.316;2023-08-01T03:01:44;5.53;;;3.55;;
29196;SDS011;62796;42.654;23.316;2023-08-01T03:04:10;4.15;;;2.85;;
29196;SDS011;62796;42.654;23.316;2023-08-01T03:06:38;6.93;;;3.65;;
29196;SDS011;62796;42.654;23.316;2023-08-01T03:09:03;7.93;;;3.83;;
29196;SDS011;62796;42.654;23.316;2023-08-01T03:11:33;5.32;;;3.28;;
29196;SDS011;62796;42.654;23.316;2023-08-01T03:14:00;7.50;;;3.05;;
29196;SDS011;62796;42.654;23.316;2023-08-01T03:16:25;4.55;;;2.92;;
29196;SDS011;62796;42.654;23.316;2023-08-01T03:18:51;4.00;;;3.22;;
29196;SDS011;62796;42.654;23.316;2023-08-01T03:21:16;5.45;;;3.40;;
29196;SDS011;62796;42.654;23.316;2023-08-01T03:23:41;4.28;;;2.85;;
29196;SDS011;62796;42.654;23.316;2023-08-01T03:26:07;6.70;;;3.25;;
29196;SDS011;62796;42.654;23.316;2023-08-01T03:28:32;5.22;;;3.10;;
29196;SDS011;62796;42.654;23.316;2023-08-01T03:30:58;5.65;;;3.10;;
29196;SDS011;62796;42.654;23.316;2023-08-01T03:33:23;4.97;;;2.92;;
29196;SDS011;62796;42.654;23.316;2023-08-01T03:35:49;6.63;;;2.97;;
29196;SDS011;62796;42.654;23.316;2023-08-01T03:38:14;8.43;;;3.22;;
29196;SDS011;62796;42.654;23.316;2023-08-01T03:40:39;4.97;;;2.95;;
29196;SDS011;62796;42.654;23.316;2023-08-01T03:43:05;4.43;;;3.00;;
29196;SDS011;62796;42.654;23.316;2023-08-01T03:45:31;7.22;;;3.22;;
29196;SDS011;62796;42.654;23.316;2023-08-01T03:47:57;4.68;;;3.35;;
29196;SDS011;62796;42.654;23.316;2023-08-01T03:50:22;8.35;;;4.13;;
29196;SDS011;62796;42.654;23.316;2023-08-01T03:52:48;7.50;;;3.25;;
29196;SDS011;62796;42.654;23.316;2023-08-01T03:55:13;6.90;;;3.47;;
29196;SDS011;62796;42.654;23.316;2023-08-01T03:57:39;6.47;;;4.00;;
29196;SDS011;62796;42.654;23.316;2023-08-01T04:00:07;5.80;;;3.03;;
29196;SDS011;62796;42.654;23.316;2023-08-01T04:02:39;6.65;;;3.35;;
29196;SDS011;62796;42.654;23.316;2023-08-01T04:05:06;4.88;;;2.90;;
29196;SDS011;62796;42.654;23.316;2023-08-01T04:07:31;7.80;;;4.20;;
29196;SDS011;62796;42.654;23.316;2023-08-01T04:09:57;6.00;;;3.92;;
29196;SDS011;62796;42.654;23.316;2023-08-01T04:12:22;4.28;;;3.88;;
29196;SDS011;62796;42.654;23.316;2023-08-01T04:14:47;7.07;;;4.32;;
29196;SDS011;62796;42.654;23.316;2023-08-01T04:17:13;7.20;;;4.07;;
29196;SDS011;62796;42.654;23.316;2023-08-01T04:19:38;7.70;;;4.93;;
29196;SDS011;62796;42.654;23.316;2023-08-01T04:22:04;5.65;;;4.53;;
29196;SDS011;62796;42.654;23.316;2023-08-01T04:24:29;4.80;;;4.28;;
29196;SDS011;62796;42.654;23.316;2023-08-01T04:26:56;8.23;;;5.05;;
29196;SDS011;62796;42.654;23.316;2023-08-01T04:29:21;9.13;;;5.72;;
29196;SDS011;62796;42.654;23.316;2023-08-01T04:31:46;9.13;;;5.65;;
29196;SDS011;62796;42.654;23.316;2023-08-01T04:34:12;10.80;;;6.03;;
29196;SDS011;62796;42.654;23.316;2023-08-01T04:36:37;8.85;;;5.57;;
29196;SDS011;62796;42.654;23.316;2023-08-01T04:39:02;10.43;;;6.80;;
29196;SDS011;62796;42.654;23.316;2023-08-01T04:41:28;8.52;;;5.70;;
29196;SDS011;62796;42.654;23.316;2023-08-01T04:43:53;10.10;;;6.10;;
29196;SDS011;62796;42.654;23.316;2023-08-01T04:46:19;7.25;;;6.00;;
29196;SDS011;62796;42.654;23.316;2023-08-01T04:48:44;7.85;;;5.93;;
29196;SDS011;62796;42.654;23.316;2023-08-01T04:51:09;8.20;;;5.80;;
29196;SDS011;62796;42.654;23.316;2023-08-01T04:53:35;8.10;;;6.10;;
29196;SDS011;62796;42.654;23.316;2023-08-01T04:56:00;9.52;;;6.10;;
29196;SDS011;62796;42.654;23.316;2023-08-01T04:58:25;8.57;;;6.60;;
29196;SDS011;62796;42.654;23.316;2023-08-01T05:00:51;9.18;;;6.38;;
29196;SDS011;62796;42.654;23.316;2023-08-01T05:03:16;9.30;;;6.00;;
29196;SDS011;62796;42.654;23.316;2023-08-01T05:05:41;11.40;;;6.45;;
29196;SDS011;62796;42.654;23.316;2023-08-01T05:08:07;8.85;;;6.03;;
29196;SDS011;62796;42.654;23.316;2023-08-01T05:10:32;7.30;;;6.07;;
29196;SDS011;62796;42.654;23.316;2023-08-01T05:12:57;11.18;;;6.25;;
29196;SDS011;62796;42.654;23.316;2023-08-01T05:15:23;9.27;;;6.32;;
29196;SDS011;62796;42.654;23.316;2023-08-01T05:17:49;9.25;;;6.40;;
29196;SDS011;62796;42.654;23.316;2023-08-01T05:20:15;7.28;;;5.90;;
29196;SDS011;62796;42.654;23.316;2023-08-01T05:22:40;8.10;;;5.93;;
29196;SDS011;62796;42.654;23.316;2023-08-01T05:25:06;10.40;;;5.88;;
29196;SDS011;62796;42.654;23.316;2023-08-01T05:27:31;12.02;;;6.20;;
29196;SDS011;62796;42.654;23.316;2023-08-01T05:29:58;9.38;;;6.00;;
29196;SDS011;62796;42.654;23.316;2023-08-01T05:32:24;11.65;;;6.05;;
29196;SDS011;62796;42.654;23.316;2023-08-01T05:34:49;8.77;;;5.70;;
29196;SDS011;62796;42.654;23.316;2023-08-01T05:37:14;8.45;;;6.05;;
29196;SDS011;62796;42.654;23.316;2023-08-01T05:39:40;11.18;;;5.75;;
29196;SDS011;62796;42.654;23.316;2023-08-01T05:42:05;11.50;;;5.63;;
29196;SDS011;62796;42.654;23.316;2023-08-01T05:44:33;8.77;;;5.43;;
29196;SDS011;62796;42.654;23.316;2023-08-01T05:46:59;14.02;;;5.80;;
29196;SDS011;62796;42.654;23.316;2023-08-01T05:49:24;17.70;;;5.78;;
29196;SDS011;62796;42.654;23.316;2023-08-01T05:51:49;11.40;;;5.47;;
29196;SDS011;62796;42.654;23.316;2023-08-01T05:54:15;11.25;;;5.10;;
29196;SDS011;62796;42.654;23.316;2023-08-01T05:56:40;16.33;;;5.18;;
29196;SDS011;62796;42.654;23.316;2023-08-01T05:59:06;12.00;;;4.70;;
29196;SDS011;62796;42.654;23.316;2023-08-01T06:01:31;9.85;;;4.10;;
29196;SDS011;62796;42.654;23.316;2023-08-01T06:03:57;8.70;;;5.13;;
29196;SDS011;62796;42.654;23.316;2023-08-01T06:06:22;7.10;;;4.35;;
29196;SDS011;62796;42.654;23.316;2023-08-01T06:08:47;6.15;;;3.17;;
29196;SDS011;62796;42.654;23.316;2023-08-01T06:11:13;6.05;;;2.92;;
29196;SDS011;62796;42.654;23.316;2023-08-01T06:13:38;6.40;;;3.20;;
29196;SDS011;62796;42.654;23.316;2023-08-01T06:16:04;9.52;;;3.70;;
29196;SDS011;62796;42.654;23.316;2023-08-01T06:18:29;8.15;;;3.47;;
29196;SDS011;62796;42.654;23.316;2023-08-01T06:20:54;8.13;;;3.97;;
29196;SDS011;62796;42.654;23.316;2023-08-01T06:23:20;5.95;;;3.15;;
29196;SDS011;62796;42.654;23.316;2023-08-01T06:25:45;5.97;;;3.05;;
29196;SDS011;62796;42.654;23.316;2023-08-01T06:28:11;11.18;;;3.38;;
29196;SDS011;62796;42.654;23.316;2023-08-01T06:30:36;7.50;;;3.63;;
29196;SDS011;62796;42.654;23.316;2023-08-01T06:33:02;8.00;;;3.38;;
29196;SDS011;62796;42.654;23.316;2023-08-01T06:35:27;11.63;;;3.33;;
29196;SDS011;62796;42.654;23.316;2023-08-01T06:37:52;9.50;;;3.47;;
29196;SDS011;62796;42.654;23.316;2023-08-01T06:40:18;34.65;;;5.43;;
29196;SDS011;62796;42.654;23.316;2023-08-01T06:42:43;6.65;;;2.90;;
29196;SDS011;62796;42.654;23.316;2023-08-01T06:45:08;5.65;;;2.90;;
29196;SDS011;62796;42.654;23.316;2023-08-01T06:47:34;4.68;;;3.10;;
29196;SDS011;62796;42.654;23.316;2023-08-01T06:49:59;6.55;;;3.45;;
29196;SDS011;62796;42.654;23.316;2023-08-01T06:52:25;5.90;;;3.35;;
29196;SDS011;62796;42.654;23.316;2023-08-01T06:54:50;7.40;;;3.20;;
29196;SDS011;62796;42.654;23.316;2023-08-01T06:57:16;8.57;;;3.42;;
29196;SDS011;62796;42.654;23.316;2023-08-01T06:59:41;4.60;;;3.15;;
29196;SDS011;62796;42.654;23.316;2023-08-01T07:02:06;6.30;;;3.20;;
29196;SDS011;62796;42.654;23.316;2023-08-01T07:04:33;5.15;;;3.40;;
29196;SDS011;62796;42.654;23.316;2023-08-01T07:06:59;5.55;;;2.90;;
29196;SDS011;62796;42.654;23.316;2023-08-01T07:09:25;9.75;;;3.55;;
29196;SDS011;62796;42.654;23.316;2023-08-01T07:11:50;10.45;;;3.80;;
29196;SDS011;62796;42.654;23.316;2023-08-01T07:14:15;5.10;;;3.40;;
29196;SDS011;62796;42.654;23.316;2023-08-01T07:16:41;8.38;;;3.63;;
29196;SDS011;62796;42.654;23.316;2023-08-01T07:19:06;6.13;;;3.33;;
29196;SDS011;62796;42.654;23.316;2023-08-01T07:21:32;5.70;;;3.47;;
29196;SDS011;62796;42.654;23.316;2023-08-01T07:23:57;6.13;;;3.13;;
29196;SDS011;62796;42.654;23.316;2023-08-01T07:26:23;7.15;;;3.25;;
29196;SDS011;62796;42.654;23.316;2023-08-01T07:28:48;6.18;;;3.15;;
29196;SDS011;62796;42.654;23.316;2023-08-01T07:31:13;8.75;;;3.28;;
29196;SDS011;62796;42.654;23.316;2023-08-01T07:33:39;6.93;;;3.20;;
29196;SDS011;62796;42.654;23.316;2023-08-01T07:36:04;6.53;;;3.72;;
29196;SDS011;62796;42.654;23.316;2023-08-01T07:38:30;9.77;;;3.28;;
29196;SDS011;62796;42.654;23.316;2023-08-01T07:40:56;9.00;;;3.88;;
29196;SDS011;62796;42.654;23.316;2023-08-01T07:43:22;4.88;;;3.35;;
29196;SDS011;62796;42.654;23.316;2023-08-01T07:45:48;10.75;;;3.83;;
29196;SDS011;62796;42.654;23.316;2023-08-01T07:48:15;4.55;;;3.50;;
29196;SDS011;62796;42.654;23.316;2023-08-01T07:50:41;6.78;;;3.80;;
29196;SDS011;62796;42.654;23.316;2023-08-01T07:53:06;5.10;;;3.45;;
29196;SDS011;62796;42.654;23.316;2023-08-01T07:55:34;10.80;;;3.22;;
29196;SDS011;62796;42.654;23.316;2023-08-01T07:58:00;58.30;;;5.72;;
29196;SDS011;62796;42.654;23.316;2023-08-01T08:00:25;14.13;;;4.43;;
29196;SDS011;62796;42.654;23.316;2023-08-01T08:02:51;6.47;;;3.90;;
29196;SDS011;62796;42.654;23.316;2023-08-01T08:05:18;9.45;;;3.42;;
29196;SDS011;62796;42.654;23.316;2023-08-01T08:07:43;10.13;;;4.00;;
29196;SDS011;62796;42.654;23.316;2023-08-01T08:10:09;31.73;;;5.57;;
29196;SDS011;62796;42.654;23.316;2023-08-01T08:12:34;7.10;;;3.60;;
29196;SDS011;62796;42.654;23.316;2023-08-01T08:15:00;10.90;;;4.18;;
29196;SDS011;62796;42.654;23.316;2023-08-01T08:17:25;8.15;;;3.80;;
29196;SDS011;62796;42.654;23.316;2023-08-01T08:19:50;6.07;;;3.60;;
29196;SDS011;62796;42.654;23.316;2023-08-01T08:22:16;8.25;;;4.28;;
29196;SDS011;62796;42.654;23.316;2023-08-01T08:24:41;10.38;;;3.95;;
29196;SDS011;62796;42.654;23.316;2023-08-01T08:27:06;5.43;;;3.90;;
29196;SDS011;62796;42.654;23.316;2023-08-01T08:29:32;5.43;;;3.30;;
29196;SDS011;62796;42.654;23.316;2023-08-01T08:31:58;5.78;;;3.20;;
29196;SDS011;62796;42.654;23.316;2023-08-01T08:34:23;8.98;;;3.83;;
29196;SDS011;62796;42.654;23.316;2023-08-01T08:36:49;7.38;;;3.47;;
29196;SDS011;62796;42.654;23.316;2023-08-01T08:39:17;4.93;;;3.47;;
29196;SDS011;62796;42.654;23.316;2023-08-01T08:41:48;6.65;;;3.35;;
29196;SDS011;62796;42.654;23.316;2023-08-01T08:44:17;6.18;;;3.60;;
29196;SDS011;62796;42.654;23.316;2023-08-01T08:46:44;6.00;;;3.63;;
29196;SDS011;62796;42.654;23.316;2023-08-01T08:49:14;12.82;;;3.80;;
29196;SDS011;62796;42.654;23.316;2023-08-01T08:51:40;6.88;;;3.53;;
29196;SDS011;62796;42.654;23.316;2023-08-01T08:54:08;8.45;;;3.90;;
29196;SDS011;62796;42.654;23.316;2023-08-01T08:56:34;10.90;;;4.22;;
29196;SDS011;62796;42.654;23.316;2023-08-01T08:59:00;5.38;;;3.50;;
29196;SDS011;62796;42.654;23.316;2023-08-01T09:01:26;4.88;;;3.67;;
29196;SDS011;62796;42.654;23.316;2023-08-01T09:03:52;7.57;;;4.03;;
29196;SDS011;62796;42.654;23.316;2023-08-01T09:06:24;8.13;;;3.70;;
29196;SDS011;62796;42.654;23.316;2023-08-01T09:11:24;5.43;;;3.80;;
29196;SDS011;62796;42.654;23.316;2023-08-01T09:13:50;7.43;;;4.30;;
29196;SDS011;62796;42.654;23.316;2023-08-01T09:16:15;5.65;;;4.13;;
29196;SDS011;62796;42.654;23.316;2023-08-01T09:18:50;6.97;;;4.15;;
29196;SDS011;62796;42.654;23.316;2023-08-01T09:21:20;11.88;;;4.13;;
29196;SDS011;62796;42.654;23.316;2023-08-01T09:23:47;13.40;;;4.72;;
29196;SDS011;62796;42.654;23.316;2023-08-01T09:26:15;8.23;;;4.07;;
29196;SDS011;62796;42.654;23.316;2023-08-01T09:28:41;7.93;;;3.47;;
29196;SDS011;62796;42.654;23.316;2023-08-01T09:31:07;5.80;;;4.00;;
29196;SDS011;62796;42.654;23.316;2023-08-01T09:33:40;10.38;;;3.42;;
29196;SDS011;62796;42.654;23.316;2023-08-01T09:36:07;5.10;;;3.33;;
29196;SDS011;62796;42.654;23.316;2023-08-01T09:38:37;8.68;;;3.53;;
29196;SDS011;62796;42.654;23.316;2023-08-01T09:41:03;5.40;;;3.75;;
29196;SDS011;62796;42.654;23.316;2023-08-01T09:43:36;4.90;;;4.00;;
29196;SDS011;62796;42.654;23.316;2023-08-01T09:46:02;6.15;;;4.40;;
29196;SDS011;62796;42.654;23.316;2023-08-01T09:48:29;7.13;;;3.95;;
29196;SDS011;62796;42.654;23.316;2023-08-01T09:53:34;5.55;;;4.00;;
29196;SDS011;62796;42.654;23.316;2023-08-01T09:56:00;6.88;;;4.00;;
29196;SDS011;62796;42.654;23.316;2023-08-01T09:58:28;9.38;;;4.03;;
29196;SDS011;62796;42.654;23.316;2023-08-01T10:00:57;5.47;;;3.60;;
29196;SDS011;62796;42.654;23.316;2023-08-01T10:03:22;6.75;;;3.90;;
29196;SDS011;62796;42.654;23.316;2023-08-01T10:05:48;7.43;;;3.45;;
29196;SDS011;62796;42.654;23.316;2023-08-01T10:08:18;7.90;;;4.05;;
29196;SDS011;62796;42.654;23.316;2023-08-01T10:10:44;7.70;;;3.85;;
29196;SDS011;62796;42.654;23.316;2023-08-01T10:13:12;7.95;;;3.88;;
29196;SDS011;62796;42.654;23.316;2023-08-01T10:15:38;5.45;;;3.88;;
29196;SDS011;62796;42.654;23.316;2023-08-01T10:18:04;6.93;;;4.25;;
29196;SDS011;62796;42.654;23.316;2023-08-01T10:20:30;17.65;;;4.78;;
29196;SDS011;62796;42.654;23.316;2023-08-01T10:22:56;6.93;;;4.22;;
29196;SDS011;62796;42.654;23.316;2023-08-01T10:25:23;9.15;;;4.53;;
29196;SDS011;62796;42.654;23.316;2023-08-01T10:30:28;12.60;;;4.22;;
29196;SDS011;62796;42.654;23.316;2023-08-01T10:32:55;8.23;;;3.90;;
29196;SDS011;62796;42.654;23.316;2023-08-01T10:35:35;5.63;;;4.07;;
29196;SDS011;62796;42.654;23.316;2023-08-01T10:38:09;7.22;;;4.07;;
29196;SDS011;62796;42.654;23.316;2023-08-01T10:40:39;7.22;;;3.53;;
29196;SDS011;62796;42.654;23.316;2023-08-01T10:43:18;8.18;;;3.63;;
29196;SDS011;62796;42.654;23.316;2023-08-01T10:45:47;8.75;;;4.32;;
29196;SDS011;62796;42.654;23.316;2023-08-01T10:48:13;4.53;;;3.60;;
29196;SDS011;62796;42.654;23.316;2023-08-01T10:50:39;6.05;;;4.00;;
29196;SDS011;62796;42.654;23.316;2023-08-01T10:53:05;9.65;;;3.92;;
29196;SDS011;62796;42.654;23.316;2023-08-01T10:55:41;6.45;;;3.83;;
29196;SDS011;62796;42.654;23.316;2023-08-01T10:58:08;5.93;;;3.28;;
29196;SDS011;62796;42.654;23.316;2023-08-01T11:00:34;20.90;;;5.78;;
29196;SDS011;62796;42.654;23.316;2023-08-01T11:02:59;6.28;;;4.10;;
29196;SDS011;62796;42.654;23.316;2023-08-01T11:05:25;7.35;;;3.85;;
29196;SDS011;62796;42.654;23.316;2023-08-01T11:10:27;7.53;;;3.90;;
29196;SDS011;62796;42.654;23.316;2023-08-01T11:12:55;6.80;;;3.92;;
29196;SDS011;62796;42.654;23.316;2023-08-01T11:15:20;4.35;;;3.50;;
29196;SDS011;62796;42.654;23.316;2023-08-01T11:17:49;7.30;;;4.13;;
29196;SDS011;62796;42.654;23.316;2023-08-01T11:20:17;5.88;;;4.07;;
29196;SDS011;62796;42.654;23.316;2023-08-01T11:22:57;4.80;;;3.90;;
29196;SDS011;62796;42.654;23.316;2023-08-01T11:25:35;5.32;;;3.53;;
29196;SDS011;62796;42.654;23.316;2023-08-01T11:28:11;6.95;;;3.80;;
29196;SDS011;62796;42.654;23.316;2023-08-01T11:30:38;7.18;;;3.88;;
29196;SDS011;62796;42.654;23.316;2023-08-01T11:35:50;6.10;;;3.67;;
29196;SDS011;62796;42.654;23.316;2023-08-01T11:38:22;3.53;;;3.20;;
29196;SDS011;62796;42.654;23.316;2023-08-01T11:40:49;5.38;;;3.10;;
29196;SDS011;62796;42.654;23.316;2023-08-01T11:43:15;7.95;;;3.78;;
29196;SDS011;62796;42.654;23.316;2023-08-01T11:45:51;4.10;;;3.25;;
29196;SDS011;62796;42.654;23.316;2023-08-01T11:48:19;4.60;;;3.40;;
29196;SDS011;62796;42.654;23.316;2023-08-01T11:50:46;4.57;;;3.15;;
29196;SDS011;62796;42.654;23.316;2023-08-01T11:53:20;7.65;;;3.65;;
29196;SDS011;62796;42.654;23.316;2023-08-01T11:55:47;3.90;;;2.88;;
29196;SDS011;62796;42.654;23.316;2023-08-01T11:58:14;6.47;;;3.28;;
29196;SDS011;62796;42.654;23.316;2023-08-01T12:00:40;5.93;;;3.10;;
29196;SDS011;62796;42.654;23.316;2023-08-01T12:03:07;6.97;;;3.50;;
29196;SDS011;62796;42.654;23.316;2023-08-01T12:05:38;7.65;;;3.60;;
29196;SDS011;62796;42.654;23.316;2023-08-01T12:08:12;5.60;;;3.22;;
29196;SDS011;62796;42.654;23.316;2023-08-01T12:10:40;12.25;;;3.35;;
29196;SDS011;62796;42.654;23.316;2023-08-01T12:13:18;6.43;;;3.60;;
29196;SDS011;62796;42.654;23.316;2023-08-01T12:15:45;9.57;;;3.22;;
29196;SDS011;62796;42.654;23.316;2023-08-01T12:18:18;12.10;;;4.18;;
29196;SDS011;62796;42.654;23.316;2023-08-01T12:20:47;5.75;;;3.72;;
29196;SDS011;62796;42.654;23.316;2023-08-01T12:23:13;8.27;;;3.40;;
29196;SDS011;62796;42.654;23.316;2023-08-01T12:25:38;4.80;;;3.22;;
29196;SDS011;62796;42.654;23.316;2023-08-01T12:28:03;6.75;;;3.55;;
29196;SDS011;62796;42.654;23.316;2023-08-01T12:30:29;6.68;;;3.53;;
29196;SDS011;62796;42.654;23.316;2023-08-01T12:32:55;3.63;;;3.05;;
29196;SDS011;62796;42.654;23.316;2023-08-01T12:35:20;10.57;;;4.07;;
29196;SDS011;62796;42.654;23.316;2023-08-01T12:37:46;10.65;;;4.07;;
29196;SDS011;62796;42.654;23.316;2023-08-01T12:40:11;5.10;;;2.53;;
29196;SDS011;62796;42.654;23.316;2023-08-01T12:42:36;12.18;;;3.22;;
29196;SDS011;62796;42.654;23.316;2023-08-01T12:45:02;5.43;;;2.80;;
29196;SDS011;62796;42.654;23.316;2023-08-01T12:47:28;4.18;;;2.40;;
29196;SDS011;62796;42.654;23.316;2023-08-01T12:49:53;8.40;;;3.22;;
29196;SDS011;62796;42.654;23.316;2023-08-01T12:52:23;3.80;;;2.70;;
29196;SDS011;62796;42.654;23.316;2023-08-01T12:54:49;3.15;;;2.85;;
29196;SDS011;62796;42.654;23.316;2023-08-01T12:57:15;7.05;;;3.20;;
29196;SDS011;62796;42.654;23.316;2023-08-01T12:59:40;7.82;;;4.22;;
29196;SDS011;62796;42.654;23.316;2023-08-01T13:02:06;7.15;;;3.30;;
29196;SDS011;62796;42.654;23.316;2023-08-01T13:04:33;3.85;;;3.00;;
29196;SDS011;62796;42.654;23.316;2023-08-01T13:06:59;7.57;;;3.30;;
29196;SDS011;62796;42.654;23.316;2023-08-01T13:09:25;4.97;;;2.22;;
29196;SDS011;62796;42.654;23.316;2023-08-01T13:11:50;10.43;;;2.85;;
29196;SDS011;62796;42.654;23.316;2023-08-01T13:14:15;12.57;;;3.00;;
29196;SDS011;62796;42.654;23.316;2023-08-01T13:16:41;8.88;;;3.53;;
29196;SDS011;62796;42.654;23.316;2023-08-01T13:19:06;9.40;;;2.38;;
29196;SDS011;62796;42.654;23.316;2023-08-01T13:21:32;4.07;;;2.17;;
29196;SDS011;62796;42.654;23.316;2023-08-01T13:24:01;4.20;;;2.60;;
29196;SDS011;62796;42.654;23.316;2023-08-01T13:26:30;4.10;;;2.38;;
29196;SDS011;62796;42.654;23.316;2023-08-01T13:28:56;8.13;;;2.92;;
29196;SDS011;62796;42.654;23.316;2023-08-01T13:31:21;7.75;;;2.65;;
29196;SDS011;62796;42.654;23.316;2023-08-01T13:33:46;6.28;;;2.70;;
29196;SDS011;62796;42.654;23.316;2023-08-01T13:36:12;3.10;;;2.10;;
29196;SDS011;62796;42.654;23.316;2023-08-01T13:38:37;3.40;;;2.40;;
29196;SDS011;62796;42.654;23.316;2023-08-01T13:41:03;4.43;;;2.53;;
29196;SDS011;62796;42.654;23.316;2023-08-01T13:43:28;3.15;;;2.00;;
29196;SDS011;62796;42.654;23.316;2023-08-01T13:45:54;4.70;;;2.50;;
29196;SDS011;62796;42.654;23.316;2023-08-01T13:48:19;9.40;;;2.63;;
29196;SDS011;62796;42.654;23.316;2023-08-01T13:50:45;4.93;;;2.47;;
29196;SDS011;62796;42.654;23.316;2023-08-01T13:53:10;2.88;;;2.47;;
29196;SDS011;62796;42.654;23.316;2023-08-01T13:55:38;3.45;;;2.50;;
29196;SDS011;62796;42.654;23.316;2023-08-01T13:58:04;3.47;;;2.55;;
29196;SDS011;62796;42.654;23.316;2023-08-01T14:00:30;3.45;;;2.90;;
29196;SDS011;62796;42.654;23.316;2023-08-01T14:02:56;6.63;;;2.22;;
29196;SDS011;62796;42.654;23.316;2023-08-01T14:05:24;7.97;;;2.55;;
29196;SDS011;62796;42.654;23.316;2023-08-01T14:07:50;4.53;;;2.60;;
29196;SDS011;62796;42.654;23.316;2023-08-01T14:10:16;5.47;;;2.50;;
29196;SDS011;62796;42.654;23.316;2023-08-01T14:12:41;3.85;;;2.60;;
29196;SDS011;62796;42.654;23.316;2023-08-01T14:15:07;4.68;;;2.33;;
29196;SDS011;62796;42.654;23.316;2023-08-01T14:17:32;2.88;;;2.58;;
29196;SDS011;62796;42.654;23.316;2023-08-01T14:19:58;4.43;;;2.28;;
29196;SDS011;62796;42.654;23.316;2023-08-01T14:22:24;3.30;;;2.50;;
29196;SDS011;62796;42.654;23.316;2023-08-01T14:24:49;2.50;;;2.30;;
29196;SDS011;62796;42.654;23.316;2023-08-01T14:27:15;5.90;;;2.58;;
29196;SDS011;62796;42.654;23.316;2023-08-01T14:29:40;6.05;;;2.75;;
29196;SDS011;62796;42.654;23.316;2023-08-01T14:32:06;3.92;;;2.65;;
29196;SDS011;62796;42.654;23.316;2023-08-01T14:34:31;2.72;;;2.38;;
29196;SDS011;62796;42.654;23.316;2023-08-01T14:36:57;4.07;;;2.40;;
29196;SDS011;62796;42.654;23.316;2023-08-01T14:39:23;2.90;;;2.70;;
29196;SDS011;62796;42.654;23.316;2023-08-01T14:41:48;4.40;;;2.63;;